Terminal Aerodrome Forecast
Issued by NWS

Home | Current Version | Previous Version | Text Only | Print | Product List | Glossary On
Versions: 1 2 3 4 5 6 7 8 9 10 11 12 13 14 15 16 17
199
FTUS42 KTAE 251720
TAFECP
TAF
KECP 251720Z 2518/2618 24010KT P6SM SCT030 BKN050
      TEMPO 2519/2522 5SM TSRA BKN040CB
     FM260000 VRB04KT P6SM BKN250
     FM261500 33005KT P6SM SCT030=

USA.gov is the U.S. government's official web portal to all federal, state and local government web resources and services.